sensor_id;sensor_type;location;lat;lon;timestamp;P1;durP1;ratioP1;P2;durP2;ratioP2
69841;SDS011;57138;51.326;-0.068;2023-07-20T00:01:15;5.43;;;2.60;;
69841;SDS011;57138;51.326;-0.068;2023-07-20T00:03:40;4.68;;;2.10;;
69841;SDS011;57138;51.326;-0.068;2023-07-20T00:06:06;3.60;;;1.48;;
69841;SDS011;57138;51.326;-0.068;2023-07-20T00:08:32;3.92;;;1.35;;
69841;SDS011;57138;51.326;-0.068;2023-07-20T00:10:57;5.60;;;1.33;;
69841;SDS011;57138;51.326;-0.068;2023-07-20T00:13:23;3.22;;;1.30;;
69841;SDS011;57138;51.326;-0.068;2023-07-20T00:15:49;2.80;;;1.27;;
69841;SDS011;57138;51.326;-0.068;2023-07-20T00:18:14;4.50;;;1.35;;
69841;SDS011;57138;51.326;-0.068;2023-07-20T00:20:40;4.00;;;1.63;;
69841;SDS011;57138;51.326;-0.068;2023-07-20T00:23:05;4.55;;;1.58;;
69841;SDS011;57138;51.326;-0.068;2023-07-20T00:25:31;6.20;;;1.95;;
69841;SDS011;57138;51.326;-0.068;2023-07-20T00:27:57;3.95;;;1.48;;
69841;SDS011;57138;51.326;-0.068;2023-07-20T00:30:22;5.18;;;1.33;;
69841;SDS011;57138;51.326;-0.068;2023-07-20T00:32:47;3.47;;;1.42;;
69841;SDS011;57138;51.326;-0.068;2023-07-20T00:35:13;5.55;;;1.58;;
69841;SDS011;57138;51.326;-0.068;2023-07-20T00:37:39;3.95;;;1.70;;
69841;SDS011;57138;51.326;-0.068;2023-07-20T00:40:05;4.30;;;1.80;;
69841;SDS011;57138;51.326;-0.068;2023-07-20T00:42:32;5.43;;;1.55;;
69841;SDS011;57138;51.326;-0.068;2023-07-20T00:44:58;4.15;;;1.48;;
69841;SDS011;57138;51.326;-0.068;2023-07-20T00:47:23;4.43;;;1.70;;
69841;SDS011;57138;51.326;-0.068;2023-07-20T00:49:48;4.03;;;1.60;;
69841;SDS011;57138;51.326;-0.068;2023-07-20T00:52:16;3.70;;;1.63;;
69841;SDS011;57138;51.326;-0.068;2023-07-20T00:54:45;4.90;;;2.53;;
69841;SDS011;57138;51.326;-0.068;2023-07-20T00:57:13;8.57;;;1.98;;
69841;SDS011;57138;51.326;-0.068;2023-07-20T00:59:39;3.75;;;1.67;;
69841;SDS011;57138;51.326;-0.068;2023-07-20T01:02:05;6.75;;;1.80;;
69841;SDS011;57138;51.326;-0.068;2023-07-20T01:04:30;5.00;;;2.20;;
69841;SDS011;57138;51.326;-0.068;2023-07-20T01:07:06;4.70;;;1.88;;
69841;SDS011;57138;51.326;-0.068;2023-07-20T01:12:35;5.75;;;2.17;;
69841;SDS011;57138;51.326;-0.068;2023-07-20T01:15:06;3.03;;;1.67;;
69841;SDS011;57138;51.326;-0.068;2023-07-20T01:17:33;4.55;;;2.22;;
69841;SDS011;57138;51.326;-0.068;2023-07-20T01:19:59;5.93;;;1.70;;
69841;SDS011;57138;51.326;-0.068;2023-07-20T01:30:29;3.28;;;1.80;;
69841;SDS011;57138;51.326;-0.068;2023-07-20T01:33:29;7.18;;;2.20;;
69841;SDS011;57138;51.326;-0.068;2023-07-20T01:35:57;5.05;;;1.67;;
69841;SDS011;57138;51.326;-0.068;2023-07-20T01:38:24;5.07;;;1.73;;
69841;SDS011;57138;51.326;-0.068;2023-07-20T01:40:50;5.57;;;1.83;;
69841;SDS011;57138;51.326;-0.068;2023-07-20T01:43:17;3.72;;;1.67;;
69841;SDS011;57138;51.326;-0.068;2023-07-20T01:45:43;4.80;;;1.90;;
69841;SDS011;57138;51.326;-0.068;2023-07-20T01:48:09;4.72;;;1.88;;
69841;SDS011;57138;51.326;-0.068;2023-07-20T01:50:35;4.57;;;1.70;;
69841;SDS011;57138;51.326;-0.068;2023-07-20T01:53:00;4.25;;;1.83;;
69841;SDS011;57138;51.326;-0.068;2023-07-20T01:55:26;4.15;;;2.10;;
69841;SDS011;57138;51.326;-0.068;2023-07-20T01:57:52;4.63;;;2.13;;
69841;SDS011;57138;51.326;-0.068;2023-07-20T02:00:18;4.45;;;1.92;;
69841;SDS011;57138;51.326;-0.068;2023-07-20T02:02:49;5.30;;;2.25;;
69841;SDS011;57138;51.326;-0.068;2023-07-20T02:05:15;4.35;;;1.85;;
69841;SDS011;57138;51.326;-0.068;2023-07-20T02:07:40;5.35;;;1.90;;
69841;SDS011;57138;51.326;-0.068;2023-07-20T02:10:06;4.22;;;2.10;;
69841;SDS011;57138;51.326;-0.068;2023-07-20T02:12:31;7.13;;;2.95;;
69841;SDS011;57138;51.326;-0.068;2023-07-20T02:14:57;5.18;;;2.10;;
69841;SDS011;57138;51.326;-0.068;2023-07-20T02:17:22;4.15;;;1.83;;
69841;SDS011;57138;51.326;-0.068;2023-07-20T02:19:50;4.68;;;1.90;;
69841;SDS011;57138;51.326;-0.068;2023-07-20T02:22:17;4.47;;;2.28;;
69841;SDS011;57138;51.326;-0.068;2023-07-20T02:24:43;2.83;;;1.75;;
69841;SDS011;57138;51.326;-0.068;2023-07-20T02:27:08;3.80;;;1.77;;
69841;SDS011;57138;51.326;-0.068;2023-07-20T02:29:34;4.65;;;1.90;;
69841;SDS011;57138;51.326;-0.068;2023-07-20T02:32:00;5.88;;;2.08;;
69841;SDS011;57138;51.326;-0.068;2023-07-20T02:34:26;5.15;;;2.00;;
69841;SDS011;57138;51.326;-0.068;2023-07-20T02:36:51;3.90;;;1.95;;
69841;SDS011;57138;51.326;-0.068;2023-07-20T02:39:16;5.32;;;2.00;;
69841;SDS011;57138;51.326;-0.068;2023-07-20T02:41:42;5.28;;;2.65;;
69841;SDS011;57138;51.326;-0.068;2023-07-20T02:44:08;4.18;;;2.05;;
69841;SDS011;57138;51.326;-0.068;2023-07-20T02:46:33;5.90;;;2.38;;
69841;SDS011;57138;51.326;-0.068;2023-07-20T02:49:00;4.43;;;1.98;;
69841;SDS011;57138;51.326;-0.068;2023-07-20T02:51:26;3.97;;;2.08;;
69841;SDS011;57138;51.326;-0.068;2023-07-20T02:53:51;5.18;;;2.28;;
69841;SDS011;57138;51.326;-0.068;2023-07-20T02:56:16;5.93;;;2.28;;
69841;SDS011;57138;51.326;-0.068;2023-07-20T02:58:43;7.00;;;2.35;;
69841;SDS011;57138;51.326;-0.068;2023-07-20T03:01:09;7.32;;;2.40;;
69841;SDS011;57138;51.326;-0.068;2023-07-20T03:03:36;4.53;;;1.95;;
69841;SDS011;57138;51.326;-0.068;2023-07-20T03:06:04;7.30;;;2.85;;
69841;SDS011;57138;51.326;-0.068;2023-07-20T03:08:30;4.38;;;1.92;;
69841;SDS011;57138;51.326;-0.068;2023-07-20T03:10:55;3.53;;;2.05;;
69841;SDS011;57138;51.326;-0.068;2023-07-20T03:13:21;5.07;;;2.25;;
69841;SDS011;57138;51.326;-0.068;2023-07-20T03:15:46;5.53;;;2.47;;
69841;SDS011;57138;51.326;-0.068;2023-07-20T03:18:12;4.40;;;2.17;;
69841;SDS011;57138;51.326;-0.068;2023-07-20T03:20:38;6.05;;;2.20;;
69841;SDS011;57138;51.326;-0.068;2023-07-20T03:23:04;3.95;;;1.90;;
69841;SDS011;57138;51.326;-0.068;2023-07-20T03:25:29;4.75;;;2.10;;
69841;SDS011;57138;51.326;-0.068;2023-07-20T03:27:55;5.07;;;2.30;;
69841;SDS011;57138;51.326;-0.068;2023-07-20T03:30:20;3.50;;;2.05;;
69841;SDS011;57138;51.326;-0.068;2023-07-20T03:32:46;4.30;;;2.20;;
69841;SDS011;57138;51.326;-0.068;2023-07-20T03:35:11;5.07;;;2.50;;
69841;SDS011;57138;51.326;-0.068;2023-07-20T03:37:36;6.45;;;2.30;;
69841;SDS011;57138;51.326;-0.068;2023-07-20T03:40:03;3.50;;;1.95;;
69841;SDS011;57138;51.326;-0.068;2023-07-20T03:42:30;4.57;;;2.40;;
69841;SDS011;57138;51.326;-0.068;2023-07-20T03:44:55;4.53;;;2.08;;
69841;SDS011;57138;51.326;-0.068;2023-07-20T03:47:21;3.42;;;1.77;;
69841;SDS011;57138;51.326;-0.068;2023-07-20T03:49:47;7.07;;;2.15;;
69841;SDS011;57138;51.326;-0.068;2023-07-20T03:52:12;6.03;;;2.03;;
69841;SDS011;57138;51.326;-0.068;2023-07-20T03:54:37;4.80;;;2.40;;
69841;SDS011;57138;51.326;-0.068;2023-07-20T03:57:03;7.25;;;1.92;;
69841;SDS011;57138;51.326;-0.068;2023-07-20T03:59:29;4.43;;;2.10;;
69841;SDS011;57138;51.326;-0.068;2023-07-20T04:01:54;4.28;;;2.40;;
69841;SDS011;57138;51.326;-0.068;2023-07-20T04:04:20;4.97;;;2.55;;
69841;SDS011;57138;51.326;-0.068;2023-07-20T04:06:45;4.97;;;2.30;;
69841;SDS011;57138;51.326;-0.068;2023-07-20T04:09:11;4.40;;;2.03;;
69841;SDS011;57138;51.326;-0.068;2023-07-20T04:11:37;6.40;;;2.22;;
69841;SDS011;57138;51.326;-0.068;2023-07-20T04:14:03;5.18;;;2.40;;
69841;SDS011;57138;51.326;-0.068;2023-07-20T04:16:28;5.50;;;2.53;;
69841;SDS011;57138;51.326;-0.068;2023-07-20T04:18:54;4.60;;;2.30;;
69841;SDS011;57138;51.326;-0.068;2023-07-20T04:21:21;3.97;;;2.08;;
69841;SDS011;57138;51.326;-0.068;2023-07-20T04:23:46;4.93;;;2.35;;
69841;SDS011;57138;51.326;-0.068;2023-07-20T04:26:12;4.57;;;2.40;;
69841;SDS011;57138;51.326;-0.068;2023-07-20T04:28:37;5.32;;;2.45;;
69841;SDS011;57138;51.326;-0.068;2023-07-20T04:31:14;6.05;;;2.22;;
69841;SDS011;57138;51.326;-0.068;2023-07-20T04:33:41;6.55;;;2.45;;
69841;SDS011;57138;51.326;-0.068;2023-07-20T04:36:07;3.75;;;2.20;;
69841;SDS011;57138;51.326;-0.068;2023-07-20T04:38:33;8.30;;;2.78;;
69841;SDS011;57138;51.326;-0.068;2023-07-20T04:40:58;5.65;;;2.20;;
69841;SDS011;57138;51.326;-0.068;2023-07-20T04:43:24;4.15;;;2.28;;
69841;SDS011;57138;51.326;-0.068;2023-07-20T04:45:49;5.25;;;3.15;;
69841;SDS011;57138;51.326;-0.068;2023-07-20T04:48:15;5.20;;;2.50;;
69841;SDS011;57138;51.326;-0.068;2023-07-20T04:50:41;6.95;;;2.53;;
69841;SDS011;57138;51.326;-0.068;2023-07-20T04:53:09;6.15;;;2.38;;
69841;SDS011;57138;51.326;-0.068;2023-07-20T04:55:38;5.38;;;2.63;;
69841;SDS011;57138;51.326;-0.068;2023-07-20T04:58:04;6.05;;;2.50;;
69841;SDS011;57138;51.326;-0.068;2023-07-20T05:00:30;4.60;;;2.72;;
69841;SDS011;57138;51.326;-0.068;2023-07-20T05:02:57;5.75;;;2.42;;
69841;SDS011;57138;51.326;-0.068;2023-07-20T05:05:22;7.72;;;2.40;;
69841;SDS011;57138;51.326;-0.068;2023-07-20T05:07:48;5.25;;;2.63;;
69841;SDS011;57138;51.326;-0.068;2023-07-20T05:10:13;4.72;;;2.33;;
69841;SDS011;57138;51.326;-0.068;2023-07-20T05:12:39;8.30;;;3.20;;
69841;SDS011;57138;51.326;-0.068;2023-07-20T05:15:04;4.70;;;2.65;;
69841;SDS011;57138;51.326;-0.068;2023-07-20T05:17:30;3.80;;;2.28;;
69841;SDS011;57138;51.326;-0.068;2023-07-20T05:19:55;5.60;;;2.63;;
69841;SDS011;57138;51.326;-0.068;2023-07-20T05:22:21;4.53;;;2.30;;
69841;SDS011;57138;51.326;-0.068;2023-07-20T05:24:47;5.80;;;2.40;;
69841;SDS011;57138;51.326;-0.068;2023-07-20T05:27:12;4.90;;;2.03;;
69841;SDS011;57138;51.326;-0.068;2023-07-20T05:29:42;4.45;;;2.13;;
69841;SDS011;57138;51.326;-0.068;2023-07-20T05:32:12;5.65;;;2.60;;
69841;SDS011;57138;51.326;-0.068;2023-07-20T05:34:38;5.53;;;2.80;;
69841;SDS011;57138;51.326;-0.068;2023-07-20T05:37:04;4.75;;;2.10;;
69841;SDS011;57138;51.326;-0.068;2023-07-20T05:39:32;7.28;;;2.28;;
69841;SDS011;57138;51.326;-0.068;2023-07-20T05:41:58;5.68;;;2.15;;
69841;SDS011;57138;51.326;-0.068;2023-07-20T05:44:23;5.03;;;2.13;;
69841;SDS011;57138;51.326;-0.068;2023-07-20T05:46:48;6.80;;;2.00;;
69841;SDS011;57138;51.326;-0.068;2023-07-20T05:49:14;5.57;;;2.53;;
69841;SDS011;57138;51.326;-0.068;2023-07-20T05:51:40;6.82;;;2.33;;
69841;SDS011;57138;51.326;-0.068;2023-07-20T05:54:05;4.95;;;2.03;;
69841;SDS011;57138;51.326;-0.068;2023-07-20T05:56:31;5.07;;;2.50;;
69841;SDS011;57138;51.326;-0.068;2023-07-20T05:58:57;6.18;;;2.35;;
69841;SDS011;57138;51.326;-0.068;2023-07-20T06:01:23;4.72;;;2.15;;
69841;SDS011;57138;51.326;-0.068;2023-07-20T06:03:52;5.47;;;2.50;;
69841;SDS011;57138;51.326;-0.068;2023-07-20T06:06:17;5.05;;;2.45;;
69841;SDS011;57138;51.326;-0.068;2023-07-20T06:08:43;5.25;;;2.58;;
69841;SDS011;57138;51.326;-0.068;2023-07-20T06:11:09;8.48;;;3.33;;
69841;SDS011;57138;51.326;-0.068;2023-07-20T06:13:35;5.50;;;2.67;;
69841;SDS011;57138;51.326;-0.068;2023-07-20T06:16:00;5.38;;;2.33;;
69841;SDS011;57138;51.326;-0.068;2023-07-20T06:18:26;4.82;;;2.38;;
69841;SDS011;57138;51.326;-0.068;2023-07-20T06:20:52;8.32;;;2.55;;
69841;SDS011;57138;51.326;-0.068;2023-07-20T06:23:18;4.57;;;2.45;;
69841;SDS011;57138;51.326;-0.068;2023-07-20T06:25:44;5.60;;;2.25;;
69841;SDS011;57138;51.326;-0.068;2023-07-20T06:28:10;7.60;;;2.90;;
69841;SDS011;57138;51.326;-0.068;2023-07-20T06:30:35;5.07;;;2.50;;
69841;SDS011;57138;51.326;-0.068;2023-07-20T06:33:01;7.07;;;2.92;;
69841;SDS011;57138;51.326;-0.068;2023-07-20T06:35:26;5.30;;;3.10;;
69841;SDS011;57138;51.326;-0.068;2023-07-20T06:37:52;8.65;;;2.67;;
69841;SDS011;57138;51.326;-0.068;2023-07-20T06:40:17;8.13;;;3.22;;
69841;SDS011;57138;51.326;-0.068;2023-07-20T06:42:43;4.90;;;2.70;;
69841;SDS011;57138;51.326;-0.068;2023-07-20T06:45:09;9.25;;;2.45;;
69841;SDS011;57138;51.326;-0.068;2023-07-20T06:47:37;7.13;;;2.78;;
69841;SDS011;57138;51.326;-0.068;2023-07-20T06:50:04;7.22;;;3.05;;
69841;SDS011;57138;51.326;-0.068;2023-07-20T06:52:30;6.85;;;2.40;;
69841;SDS011;57138;51.326;-0.068;2023-07-20T06:54:55;9.20;;;3.13;;
69841;SDS011;57138;51.326;-0.068;2023-07-20T06:57:20;9.35;;;3.00;;
69841;SDS011;57138;51.326;-0.068;2023-07-20T06:59:46;7.35;;;2.72;;
69841;SDS011;57138;51.326;-0.068;2023-07-20T07:02:11;7.97;;;2.97;;
69841;SDS011;57138;51.326;-0.068;2023-07-20T07:04:37;8.27;;;2.85;;
69841;SDS011;57138;51.326;-0.068;2023-07-20T07:07:02;8.02;;;3.28;;
69841;SDS011;57138;51.326;-0.068;2023-07-20T07:09:28;8.90;;;3.50;;
69841;SDS011;57138;51.326;-0.068;2023-07-20T07:11:54;9.85;;;3.22;;
69841;SDS011;57138;51.326;-0.068;2023-07-20T07:14:19;8.02;;;3.42;;
69841;SDS011;57138;51.326;-0.068;2023-07-20T07:16:46;7.68;;;3.63;;
69841;SDS011;57138;51.326;-0.068;2023-07-20T07:19:13;6.88;;;3.13;;
69841;SDS011;57138;51.326;-0.068;2023-07-20T07:21:38;7.70;;;3.13;;
69841;SDS011;57138;51.326;-0.068;2023-07-20T07:24:04;6.22;;;2.67;;
69841;SDS011;57138;51.326;-0.068;2023-07-20T07:26:32;6.72;;;3.05;;
69841;SDS011;57138;51.326;-0.068;2023-07-20T07:28:57;8.30;;;3.28;;
69841;SDS011;57138;51.326;-0.068;2023-07-20T07:31:24;7.40;;;3.15;;
69841;SDS011;57138;51.326;-0.068;2023-07-20T07:33:50;5.82;;;3.00;;
69841;SDS011;57138;51.326;-0.068;2023-07-20T07:36:16;5.75;;;2.63;;
69841;SDS011;57138;51.326;-0.068;2023-07-20T07:38:42;6.60;;;2.80;;
69841;SDS011;57138;51.326;-0.068;2023-07-20T07:41:08;6.68;;;3.22;;
69841;SDS011;57138;51.326;-0.068;2023-07-20T07:43:33;7.60;;;2.80;;
69841;SDS011;57138;51.326;-0.068;2023-07-20T07:46:00;7.70;;;3.05;;
69841;SDS011;57138;51.326;-0.068;2023-07-20T07:48:25;7.80;;;3.10;;
69841;SDS011;57138;51.326;-0.068;2023-07-20T07:50:51;6.30;;;2.97;;
69841;SDS011;57138;51.326;-0.068;2023-07-20T07:53:16;7.97;;;2.80;;
69841;SDS011;57138;51.326;-0.068;2023-07-20T07:55:42;11.27;;;2.53;;
69841;SDS011;57138;51.326;-0.068;2023-07-20T07:58:07;14.38;;;3.40;;
69841;SDS011;57138;51.326;-0.068;2023-07-20T08:00:33;11.07;;;3.30;;
69841;SDS011;57138;51.326;-0.068;2023-07-20T08:02:59;6.68;;;3.67;;
69841;SDS011;57138;51.326;-0.068;2023-07-20T08:05:24;6.53;;;2.90;;
69841;SDS011;57138;51.326;-0.068;2023-07-20T08:07:51;5.80;;;2.97;;
69841;SDS011;57138;51.326;-0.068;2023-07-20T08:10:17;8.02;;;3.30;;
69841;SDS011;57138;51.326;-0.068;2023-07-20T08:12:42;4.95;;;2.65;;
69841;SDS011;57138;51.326;-0.068;2023-07-20T08:15:10;8.55;;;3.22;;
69841;SDS011;57138;51.326;-0.068;2023-07-20T08:17:37;5.90;;;3.00;;
69841;SDS011;57138;51.326;-0.068;2023-07-20T08:20:02;6.35;;;3.50;;
69841;SDS011;57138;51.326;-0.068;2023-07-20T08:22:28;6.15;;;2.80;;
69841;SDS011;57138;51.326;-0.068;2023-07-20T08:24:53;11.32;;;3.08;;
69841;SDS011;57138;51.326;-0.068;2023-07-20T08:27:19;7.50;;;2.80;;
69841;SDS011;57138;51.326;-0.068;2023-07-20T08:29:44;10.40;;;2.92;;
69841;SDS011;57138;51.326;-0.068;2023-07-20T08:32:10;7.57;;;2.45;;
69841;SDS011;57138;51.326;-0.068;2023-07-20T08:34:35;6.47;;;2.40;;
69841;SDS011;57138;51.326;-0.068;2023-07-20T08:37:01;11.52;;;3.63;;
69841;SDS011;57138;51.326;-0.068;2023-07-20T08:39:26;7.00;;;2.70;;
69841;SDS011;57138;51.326;-0.068;2023-07-20T08:41:51;5.47;;;1.73;;
69841;SDS011;57138;51.326;-0.068;2023-07-20T08:44:17;8.48;;;2.20;;
69841;SDS011;57138;51.326;-0.068;2023-07-20T08:46:43;6.15;;;2.28;;
69841;SDS011;57138;51.326;-0.068;2023-07-20T08:49:10;4.25;;;1.73;;
69841;SDS011;57138;51.326;-0.068;2023-07-20T08:51:36;4.10;;;2.00;;
69841;SDS011;57138;51.326;-0.068;2023-07-20T08:54:02;6.85;;;2.17;;
69841;SDS011;57138;51.326;-0.068;2023-07-20T08:56:28;12.02;;;2.22;;
69841;SDS011;57138;51.326;-0.068;2023-07-20T08:58:56;6.32;;;2.15;;
69841;SDS011;57138;51.326;-0.068;2023-07-20T09:01:23;6.45;;;2.13;;
69841;SDS011;57138;51.326;-0.068;2023-07-20T09:03:50;7.82;;;2.35;;
69841;SDS011;57138;51.326;-0.068;2023-07-20T09:06:15;8.48;;;1.77;;
69841;SDS011;57138;51.326;-0.068;2023-07-20T09:08:41;4.57;;;2.13;;
69841;SDS011;57138;51.326;-0.068;2023-07-20T09:11:07;7.40;;;2.00;;
69841;SDS011;57138;51.326;-0.068;2023-07-20T09:13:34;6.32;;;2.05;;
69841;SDS011;57138;51.326;-0.068;2023-07-20T09:16:00;5.93;;;2.55;;
69841;SDS011;57138;51.326;-0.068;2023-07-20T09:18:30;7.53;;;2.00;;
69841;SDS011;57138;51.326;-0.068;2023-07-20T09:21:01;5.28;;;1.95;;
69841;SDS011;57138;51.326;-0.068;2023-07-20T09:23:35;2.97;;;1.45;;
69841;SDS011;57138;51.326;-0.068;2023-07-20T09:31:32;6.50;;;2.28;;
69841;SDS011;57138;51.326;-0.068;2023-07-20T09:33:58;5.07;;;1.67;;
69841;SDS011;57138;51.326;-0.068;2023-07-20T09:36:24;3.60;;;1.80;;
69841;SDS011;57138;51.326;-0.068;2023-07-20T09:38:52;4.80;;;1.63;;
69841;SDS011;57138;51.326;-0.068;2023-07-20T09:41:17;4.35;;;1.42;;
69841;SDS011;57138;51.326;-0.068;2023-07-20T09:43:46;3.80;;;1.50;;
69841;SDS011;57138;51.326;-0.068;2023-07-20T09:46:24;3.47;;;1.05;;
69841;SDS011;57138;51.326;-0.068;2023-07-20T09:53:52;7.93;;;1.40;;
69841;SDS011;57138;51.326;-0.068;2023-07-20T09:56:20;3.35;;;1.10;;
69841;SDS011;57138;51.326;-0.068;2023-07-20T09:58:47;3.95;;;1.35;;
69841;SDS011;57138;51.326;-0.068;2023-07-20T10:01:13;5.95;;;1.85;;
69841;SDS011;57138;51.326;-0.068;2023-07-20T10:03:46;4.90;;;1.30;;
69841;SDS011;57138;51.326;-0.068;2023-07-20T10:06:15;9.88;;;1.85;;
69841;SDS011;57138;51.326;-0.068;2023-07-20T10:08:45;3.55;;;1.20;;
69841;SDS011;57138;51.326;-0.068;2023-07-20T10:11:13;6.50;;;1.85;;
69841;SDS011;57138;51.326;-0.068;2023-07-20T10:13:41;4.18;;;1.38;;
69841;SDS011;57138;51.326;-0.068;2023-07-20T10:16:11;4.43;;;1.30;;
69841;SDS011;57138;51.326;-0.068;2023-07-20T10:21:27;2.63;;;1.10;;
69841;SDS011;57138;51.326;-0.068;2023-07-20T10:23:55;3.28;;;1.38;;
69841;SDS011;57138;51.326;-0.068;2023-07-20T10:26:22;7.80;;;1.80;;
69841;SDS011;57138;51.326;-0.068;2023-07-20T10:28:48;4.22;;;0.98;;
69841;SDS011;57138;51.326;-0.068;2023-07-20T10:31:14;6.13;;;1.13;;
69841;SDS011;57138;51.326;-0.068;2023-07-20T10:33:42;5.45;;;0.98;;
69841;SDS011;57138;51.326;-0.068;2023-07-20T10:36:09;3.10;;;1.00;;
69841;SDS011;57138;51.326;-0.068;2023-07-20T10:43:45;3.22;;;1.08;;
69841;SDS011;57138;51.326;-0.068;2023-07-20T10:46:11;2.92;;;1.17;;
69841;SDS011;57138;51.326;-0.068;2023-07-20T10:48:58;2.45;;;1.02;;
69841;SDS011;57138;51.326;-0.068;2023-07-20T10:51:27;4.30;;;1.10;;
69841;SDS011;57138;51.326;-0.068;2023-07-20T10:53:56;2.67;;;0.90;;
69841;SDS011;57138;51.326;-0.068;2023-07-20T10:56:25;3.85;;;1.15;;
69841;SDS011;57138;51.326;-0.068;2023-07-20T10:58:57;3.45;;;1.23;;
69841;SDS011;57138;51.326;-0.068;2023-07-20T11:01:28;3.15;;;1.10;;
69841;SDS011;57138;51.326;-0.068;2023-07-20T11:03:57;3.42;;;1.13;;
69841;SDS011;57138;51.326;-0.068;2023-07-20T11:09:08;3.25;;;1.00;;
69841;SDS011;57138;51.326;-0.068;2023-07-20T11:11:43;4.20;;;1.35;;
69841;SDS011;57138;51.326;-0.068;2023-07-20T11:14:25;4.65;;;1.63;;
69841;SDS011;57138;51.326;-0.068;2023-07-20T11:16:51;3.60;;;1.20;;
69841;SDS011;57138;51.326;-0.068;2023-07-20T11:19:18;3.75;;;1.55;;
69841;SDS011;57138;51.326;-0.068;2023-07-20T11:21:44;4.57;;;1.00;;
69841;SDS011;57138;51.326;-0.068;2023-07-20T11:24:12;3.67;;;1.35;;
69841;SDS011;57138;51.326;-0.068;2023-07-20T11:29:08;4.30;;;1.17;;
69841;SDS011;57138;51.326;-0.068;2023-07-20T11:31:40;3.63;;;1.20;;
69841;SDS011;57138;51.326;-0.068;2023-07-20T11:34:12;2.80;;;1.15;;
69841;SDS011;57138;51.326;-0.068;2023-07-20T11:36:44;2.30;;;0.90;;
69841;SDS011;57138;51.326;-0.068;2023-07-20T11:39:12;5.20;;;1.55;;
69841;SDS011;57138;51.326;-0.068;2023-07-20T11:41:43;3.28;;;1.10;;
69841;SDS011;57138;51.326;-0.068;2023-07-20T11:44:12;6.85;;;1.65;;
69841;SDS011;57138;51.326;-0.068;2023-07-20T11:46:38;3.45;;;1.23;;
69841;SDS011;57138;51.326;-0.068;2023-07-20T11:49:05;5.22;;;1.40;;
69841;SDS011;57138;51.326;-0.068;2023-07-20T11:51:32;3.50;;;0.90;;
69841;SDS011;57138;51.326;-0.068;2023-07-20T11:53:58;3.78;;;1.58;;
69841;SDS011;57138;51.326;-0.068;2023-07-20T11:56:25;5.53;;;1.30;;
69841;SDS011;57138;51.326;-0.068;2023-07-20T11:58:54;4.13;;;1.00;;
69841;SDS011;57138;51.326;-0.068;2023-07-20T12:01:22;2.50;;;1.08;;
69841;SDS011;57138;51.326;-0.068;2023-07-20T12:03:49;2.65;;;1.13;;
69841;SDS011;57138;51.326;-0.068;2023-07-20T12:06:15;3.35;;;1.05;;
69841;SDS011;57138;51.326;-0.068;2023-07-20T12:08:44;3.33;;;1.00;;
69841;SDS011;57138;51.326;-0.068;2023-07-20T12:11:09;4.45;;;1.10;;
69841;SDS011;57138;51.326;-0.068;2023-07-20T12:13:36;2.28;;;1.10;;
69841;SDS011;57138;51.326;-0.068;2023-07-20T12:16:10;4.60;;;1.23;;
69841;SDS011;57138;51.326;-0.068;2023-07-20T12:18:40;3.47;;;1.20;;
69841;SDS011;57138;51.326;-0.068;2023-07-20T12:21:07;4.72;;;1.13;;
69841;SDS011;57138;51.326;-0.068;2023-07-20T12:23:37;3.38;;;1.40;;
69841;SDS011;57138;51.326;-0.068;2023-07-20T12:26:06;2.40;;;1.00;;
69841;SDS011;57138;51.326;-0.068;2023-07-20T12:28:35;2.38;;;1.00;;
69841;SDS011;57138;51.326;-0.068;2023-07-20T12:31:04;4.43;;;1.50;;
69841;SDS011;57138;51.326;-0.068;2023-07-20T12:33:29;4.13;;;0.90;;
69841;SDS011;57138;51.326;-0.068;2023-07-20T12:35:55;7.75;;;2.33;;
69841;SDS011;57138;51.326;-0.068;2023-07-20T12:38:23;3.65;;;1.10;;
69841;SDS011;57138;51.326;-0.068;2023-07-20T12:40:49;3.25;;;1.17;;
69841;SDS011;57138;51.326;-0.068;2023-07-20T12:43:15;3.15;;;1.05;;
69841;SDS011;57138;51.326;-0.068;2023-07-20T12:45:40;2.75;;;1.08;;
69841;SDS011;57138;51.326;-0.068;2023-07-20T12:48:06;4.57;;;1.20;;
69841;SDS011;57138;51.326;-0.068;2023-07-20T12:50:32;4.38;;;1.75;;
69841;SDS011;57138;51.326;-0.068;2023-07-20T12:52:57;2.13;;;0.80;;
69841;SDS011;57138;51.326;-0.068;2023-07-20T12:55:23;2.97;;;1.13;;
69841;SDS011;57138;51.326;-0.068;2023-07-20T12:57:48;4.10;;;1.20;;
69841;SDS011;57138;51.326;-0.068;2023-07-20T13:00:14;3.00;;;0.63;;
69841;SDS011;57138;51.326;-0.068;2023-07-20T13:02:41;2.38;;;0.85;;
69841;SDS011;57138;51.326;-0.068;2023-07-20T13:05:08;3.03;;;1.00;;
69841;SDS011;57138;51.326;-0.068;2023-07-20T13:07:38;2.53;;;0.93;;
69841;SDS011;57138;51.326;-0.068;2023-07-20T13:10:04;3.33;;;0.95;;
69841;SDS011;57138;51.326;-0.068;2023-07-20T13:12:31;2.13;;;0.82;;
69841;SDS011;57138;51.326;-0.068;2023-07-20T13:14:58;2.95;;;1.00;;
69841;SDS011;57138;51.326;-0.068;2023-07-20T13:17:26;2.38;;;0.90;;
69841;SDS011;57138;51.326;-0.068;2023-07-20T13:19:55;3.05;;;1.15;;
69841;SDS011;57138;51.326;-0.068;2023-07-20T13:22:20;2.22;;;0.90;;
69841;SDS011;57138;51.326;-0.068;2023-07-20T13:24:46;4.82;;;0.98;;
69841;SDS011;57138;51.326;-0.068;2023-07-20T13:27:14;4.75;;;0.90;;
69841;SDS011;57138;51.326;-0.068;2023-07-20T13:29:40;3.13;;;0.98;;
69841;SDS011;57138;51.326;-0.068;2023-07-20T13:32:06;3.72;;;0.98;;
69841;SDS011;57138;51.326;-0.068;2023-07-20T13:34:32;7.45;;;1.20;;
69841;SDS011;57138;51.326;-0.068;2023-07-20T13:36:58;2.88;;;1.23;;
69841;SDS011;57138;51.326;-0.068;2023-07-20T13:39:23;2.25;;;1.15;;
69841;SDS011;57138;51.326;-0.068;2023-07-20T13:41:51;2.72;;;1.00;;
69841;SDS011;57138;51.326;-0.068;2023-07-20T13:44:17;3.65;;;0.98;;
69841;SDS011;57138;51.326;-0.068;2023-07-20T13:46:42;2.58;;;1.00;;
69841;SDS011;57138;51.326;-0.068;2023-07-20T13:49:08;2.40;;;0.90;;
69841;SDS011;57138;51.326;-0.068;2023-07-20T13:51:34;1.90;;;0.80;;
69841;SDS011;57138;51.326;-0.068;2023-07-20T13:53:59;3.67;;;1.10;;
69841;SDS011;57138;51.326;-0.068;2023-07-20T13:56:25;3.75;;;0.80;;
69841;SDS011;57138;51.326;-0.068;2023-07-20T13:58:52;3.22;;;0.95;;
69841;SDS011;57138;51.326;-0.068;2023-07-20T14:01:17;6.93;;;1.10;;
69841;SDS011;57138;51.326;-0.068;2023-07-20T14:03:43;3.53;;;1.08;;
69841;SDS011;57138;51.326;-0.068;2023-07-20T14:06:08;4.95;;;0.80;;
69841;SDS011;57138;51.326;-0.068;2023-07-20T14:08:34;5.10;;;0.90;;
69841;SDS011;57138;51.326;-0.068;2023-07-20T14:10:59;3.72;;;1.30;;
69841;SDS011;57138;51.326;-0.068;2023-07-20T14:13:25;3.17;;;1.25;;
69841;SDS011;57138;51.326;-0.068;2023-07-20T14:15:50;6.53;;;1.10;;
69841;SDS011;57138;51.326;-0.068;2023-07-20T14:18:16;3.80;;;1.10;;
69841;SDS011;57138;51.326;-0.068;2023-07-20T14:20:41;3.05;;;1.00;;
69841;SDS011;57138;51.326;-0.068;2023-07-20T14:23:07;4.22;;;1.15;;
69841;SDS011;57138;51.326;-0.068;2023-07-20T14:25:32;4.32;;;1.10;;
69841;SDS011;57138;51.326;-0.068;2023-07-20T14:27:59;2.63;;;0.95;;
69841;SDS011;57138;51.326;-0.068;2023-07-20T14:30:25;5.82;;;1.15;;
69841;SDS011;57138;51.326;-0.068;2023-07-20T14:32:53;2.78;;;0.95;;
69841;SDS011;57138;51.326;-0.068;2023-07-20T14:35:20;4.00;;;0.80;;
69841;SDS011;57138;51.326;-0.068;2023-07-20T14:37:45;2.08;;;0.88;;
69841;SDS011;57138;51.326;-0.068;2023-07-20T14:40:18;4.93;;;1.10;;
69841;SDS011;57138;51.326;-0.068;2023-07-20T14:42:43;4.28;;;1.15;;
69841;SDS011;57138;51.326;-0.068;2023-07-20T14:45:09;5.20;;;0.90;;
69841;SDS011;57138;51.326;-0.068;2023-07-20T14:47:34;3.35;;;0.70;;
69841;SDS011;57138;51.326;-0.068;2023-07-20T14:50:04;2.75;;;0.90;;
69841;SDS011;57138;51.326;-0.068;2023-07-20T14:52:30;1.88;;;0.75;;
69841;SDS011;57138;51.326;-0.068;2023-07-20T14:54:55;3.28;;;1.17;;
69841;SDS011;57138;51.326;-0.068;2023-07-20T14:57:22;5.47;;;0.98;;
69841;SDS011;57138;51.326;-0.068;2023-07-20T14:59:49;5.80;;;1.00;;
69841;SDS011;57138;51.326;-0.068;2023-07-20T15:02:20;2.72;;;1.00;;
69841;SDS011;57138;51.326;-0.068;2023-07-20T15:04:49;2.50;;;0.90;;